Zadoi, China
Current Conditions -  °F | °C
As of 8:00 AM on Wednesday 22 Oct 2014 (Local Time) from ZLLL Reporting Station
Clear Clear  
Wind Chill: 39°   Ceiling: Unl
Heat Index: 43°   Visibility: 6mi
Dew Point: 28°   Wind: 7mph
Humidity: 57%   Direction: 20°NNE
Pressure: 30.33"   Gusts: NA
Location:  32.9°N, 95.3°E
Report Text: ZLLL 220000Z 02003MPS CAVOK 06/M02 Q1027 NOSIG
Loading
Personal Weather Stations






























Interactive Weather Map
Tropical Storm Tracking
New forecast layout! Learn more

10-Day Weather Forecast

Advertisements
Track Severe Weather on mobile